Pagina principale
METAR-TAF:

METAR-TAF

Aeroporti :

Cerklje ob Krki, Slovenia

latitudine: 45-53-59N, longitudine: 15-30-55E, altezza: 157 m

Osservazione

Il bollettino è stato emesso 18 minuti fa, alle 12:30 UTC
Vento 5 kt da est, variando fra nord/nord-est e est/sud-est
Temperature 3°C
Umidità 44%
Pressione 1038 hPa
Visibilità 10 km o più
Nubi sparse ad un'altezza di 3500 ft

METAR: LJCE 091230Z 09005KT 030V120 9999 SCT035 03/M08 Q1038 RMK BLU

Ora: 13:48 (12:48 UTC)

Previsione

Il bollettino è stato emesso 1 ora e 48 minuti fa, alle 11:00 UTC
Previsione valida dal 09 alle 12 UTC al 09 alle 21 UTC
Vento 3 kt da est
Visibilità 10 km o più
Poco nuvoloso ad un'altezza di 3000 ft
Nubi sparse ad un'altezza di 4000 ft

TAF: LJCE 091100Z 0912/0921 09003KT 9999 FEW030 SCT040

Osservazioni e previsioni meteorologiche di più di 4000 aeroporti (messaggi METAR e TAF).

Le stazioni disponibili sono rappresentate dai dischi gialli e rossi sulla carta.

Puntare il mouse per vedere il nome della stazione.

Clicca sopra per visualizzare le osservazioni e previsioni meteorologiche.

Per cambiare la mappa : fare clic sui pulsanti verdi con una croce nera per ingrandire, il pulsante verde con un trattino per diminuire, o sulla freccia verde per le mappe adiacenti.


METAR-TAF: